sensor_id;sensor_type;location;lat;lon;timestamp;P1;durP1;ratioP1;P2;durP2;ratioP2
53925;SDS011;39836;52.754;6.866;2022-11-10T00:00:59;32.33;;;8.32;;
53925;SDS011;39836;52.754;6.866;2022-11-10T00:03:31;19.58;;;6.80;;
53925;SDS011;39836;52.754;6.866;2022-11-10T00:05:57;26.02;;;7.85;;
53925;SDS011;39836;52.754;6.866;2022-11-10T00:08:23;21.52;;;7.05;;
53925;SDS011;39836;52.754;6.866;2022-11-10T00:10:48;19.60;;;7.63;;
53925;SDS011;39836;52.754;6.866;2022-11-10T00:13:23;25.60;;;8.95;;
53925;SDS011;39836;52.754;6.866;2022-11-10T00:16:00;22.35;;;8.90;;
53925;SDS011;39836;52.754;6.866;2022-11-10T00:18:46;25.67;;;7.72;;
53925;SDS011;39836;52.754;6.866;2022-11-10T00:21:12;28.77;;;8.52;;
53925;SDS011;39836;52.754;6.866;2022-11-10T00:23:39;31.17;;;7.88;;
53925;SDS011;39836;52.754;6.866;2022-11-10T00:26:16;24.55;;;9.18;;
53925;SDS011;39836;52.754;6.866;2022-11-10T00:28:43;23.73;;;7.68;;
53925;SDS011;39836;52.754;6.866;2022-11-10T00:31:09;27.15;;;7.63;;
53925;SDS011;39836;52.754;6.866;2022-11-10T00:33:39;27.25;;;9.98;;
53925;SDS011;39836;52.754;6.866;2022-11-10T00:36:06;21.75;;;7.07;;
53925;SDS011;39836;52.754;6.866;2022-11-10T00:38:32;25.92;;;8.50;;
53925;SDS011;39836;52.754;6.866;2022-11-10T00:40:58;28.80;;;11.13;;
53925;SDS011;39836;52.754;6.866;2022-11-10T00:43:25;20.73;;;7.30;;
53925;SDS011;39836;52.754;6.866;2022-11-10T00:45:51;25.70;;;7.53;;
53925;SDS011;39836;52.754;6.866;2022-11-10T00:48:17;23.45;;;8.27;;
53925;SDS011;39836;52.754;6.866;2022-11-10T00:50:42;21.33;;;8.05;;
53925;SDS011;39836;52.754;6.866;2022-11-10T00:53:08;23.63;;;8.20;;
53925;SDS011;39836;52.754;6.866;2022-11-10T00:55:38;24.75;;;8.00;;
53925;SDS011;39836;52.754;6.866;2022-11-10T00:58:04;24.77;;;7.82;;
53925;SDS011;39836;52.754;6.866;2022-11-10T01:00:30;29.92;;;8.52;;
53925;SDS011;39836;52.754;6.866;2022-11-10T01:02:56;26.55;;;8.40;;
53925;SDS011;39836;52.754;6.866;2022-11-10T01:05:22;30.70;;;7.93;;
53925;SDS011;39836;52.754;6.866;2022-11-10T01:07:47;25.15;;;8.65;;
53925;SDS011;39836;52.754;6.866;2022-11-10T01:10:13;24.00;;;8.40;;
53925;SDS011;39836;52.754;6.866;2022-11-10T01:12:39;25.08;;;8.18;;
53925;SDS011;39836;52.754;6.866;2022-11-10T01:15:05;22.88;;;9.13;;
53925;SDS011;39836;52.754;6.866;2022-11-10T01:17:31;29.08;;;8.95;;
53925;SDS011;39836;52.754;6.866;2022-11-10T01:19:57;21.10;;;8.43;;
53925;SDS011;39836;52.754;6.866;2022-11-10T01:22:23;29.92;;;8.60;;
53925;SDS011;39836;52.754;6.866;2022-11-10T01:24:48;36.80;;;8.68;;
53925;SDS011;39836;52.754;6.866;2022-11-10T01:27:14;22.38;;;8.13;;
53925;SDS011;39836;52.754;6.866;2022-11-10T01:29:40;30.65;;;8.95;;
53925;SDS011;39836;52.754;6.866;2022-11-10T01:32:06;42.47;;;8.88;;
53925;SDS011;39836;52.754;6.866;2022-11-10T01:34:32;22.92;;;8.63;;
53925;SDS011;39836;52.754;6.866;2022-11-10T01:36:57;28.63;;;9.30;;
53925;SDS011;39836;52.754;6.866;2022-11-10T01:39:23;28.88;;;8.82;;
53925;SDS011;39836;52.754;6.866;2022-11-10T01:41:48;25.85;;;9.02;;
53925;SDS011;39836;52.754;6.866;2022-11-10T01:44:19;37.10;;;8.90;;
53925;SDS011;39836;52.754;6.866;2022-11-10T01:46:46;27.13;;;9.35;;
53925;SDS011;39836;52.754;6.866;2022-11-10T01:49:12;25.23;;;9.55;;
53925;SDS011;39836;52.754;6.866;2022-11-10T01:51:45;27.48;;;8.90;;
53925;SDS011;39836;52.754;6.866;2022-11-10T01:54:19;35.25;;;9.32;;
53925;SDS011;39836;52.754;6.866;2022-11-10T01:56:49;32.03;;;9.55;;
53925;SDS011;39836;52.754;6.866;2022-11-10T01:59:26;21.50;;;9.50;;
53925;SDS011;39836;52.754;6.866;2022-11-10T02:01:56;24.15;;;9.60;;
53925;SDS011;39836;52.754;6.866;2022-11-10T02:04:26;33.13;;;9.82;;
53925;SDS011;39836;52.754;6.866;2022-11-10T02:06:51;29.48;;;10.10;;
53925;SDS011;39836;52.754;6.866;2022-11-10T02:09:18;29.55;;;10.25;;
53925;SDS011;39836;52.754;6.866;2022-11-10T02:11:44;28.33;;;9.13;;
53925;SDS011;39836;52.754;6.866;2022-11-10T02:14:11;29.13;;;10.00;;
53925;SDS011;39836;52.754;6.866;2022-11-10T02:16:39;23.85;;;8.82;;
53925;SDS011;39836;52.754;6.866;2022-11-10T02:19:13;27.90;;;8.75;;
53925;SDS011;39836;52.754;6.866;2022-11-10T02:21:41;25.95;;;9.07;;
53925;SDS011;39836;52.754;6.866;2022-11-10T02:24:06;29.73;;;9.93;;
53925;SDS011;39836;52.754;6.866;2022-11-10T02:26:32;27.17;;;10.20;;
53925;SDS011;39836;52.754;6.866;2022-11-10T02:29:00;20.98;;;8.73;;
53925;SDS011;39836;52.754;6.866;2022-11-10T02:31:26;28.63;;;10.65;;
53925;SDS011;39836;52.754;6.866;2022-11-10T02:33:51;31.52;;;9.73;;
53925;SDS011;39836;52.754;6.866;2022-11-10T02:36:17;31.55;;;10.50;;
53925;SDS011;39836;52.754;6.866;2022-11-10T02:38:43;35.72;;;9.75;;
53925;SDS011;39836;52.754;6.866;2022-11-10T02:41:08;31.95;;;9.65;;
53925;SDS011;39836;52.754;6.866;2022-11-10T02:43:34;25.17;;;10.40;;
53925;SDS011;39836;52.754;6.866;2022-11-10T02:46:01;29.35;;;11.07;;
53925;SDS011;39836;52.754;6.866;2022-11-10T02:48:27;28.45;;;11.43;;
53925;SDS011;39836;52.754;6.866;2022-11-10T02:50:53;36.05;;;11.30;;
53925;SDS011;39836;52.754;6.866;2022-11-10T02:53:19;35.83;;;12.15;;
53925;SDS011;39836;52.754;6.866;2022-11-10T02:55:44;38.13;;;12.93;;
53925;SDS011;39836;52.754;6.866;2022-11-10T02:58:10;37.67;;;12.88;;
53925;SDS011;39836;52.754;6.866;2022-11-10T03:00:36;32.65;;;13.02;;
53925;SDS011;39836;52.754;6.866;2022-11-10T03:03:02;41.60;;;13.00;;
53925;SDS011;39836;52.754;6.866;2022-11-10T03:05:28;30.52;;;13.32;;
53925;SDS011;39836;52.754;6.866;2022-11-10T03:07:55;40.17;;;13.15;;
53925;SDS011;39836;52.754;6.866;2022-11-10T03:10:26;30.52;;;13.25;;
53925;SDS011;39836;52.754;6.866;2022-11-10T03:12:54;36.38;;;14.35;;
53925;SDS011;39836;52.754;6.866;2022-11-10T03:15:21;41.38;;;14.93;;
53925;SDS011;39836;52.754;6.866;2022-11-10T03:17:47;36.70;;;13.55;;
53925;SDS011;39836;52.754;6.866;2022-11-10T03:20:13;42.35;;;16.00;;
53925;SDS011;39836;52.754;6.866;2022-11-10T03:22:39;31.27;;;14.57;;
53925;SDS011;39836;52.754;6.866;2022-11-10T03:25:04;44.13;;;15.40;;
53925;SDS011;39836;52.754;6.866;2022-11-10T03:27:30;36.75;;;13.82;;
53925;SDS011;39836;52.754;6.866;2022-11-10T03:29:56;33.95;;;13.65;;
53925;SDS011;39836;52.754;6.866;2022-11-10T03:32:22;39.78;;;15.23;;
53925;SDS011;39836;52.754;6.866;2022-11-10T03:34:48;39.63;;;14.68;;
53925;SDS011;39836;52.754;6.866;2022-11-10T03:37:13;37.28;;;14.75;;
53925;SDS011;39836;52.754;6.866;2022-11-10T03:39:39;38.17;;;14.38;;
53925;SDS011;39836;52.754;6.866;2022-11-10T03:42:05;45.90;;;16.38;;
53925;SDS011;39836;52.754;6.866;2022-11-10T03:44:30;40.28;;;15.35;;
53925;SDS011;39836;52.754;6.866;2022-11-10T03:46:56;45.08;;;16.00;;
53925;SDS011;39836;52.754;6.866;2022-11-10T03:49:22;41.08;;;15.68;;
53925;SDS011;39836;52.754;6.866;2022-11-10T03:51:47;45.83;;;16.10;;
53925;SDS011;39836;52.754;6.866;2022-11-10T03:54:13;45.53;;;15.80;;
53925;SDS011;39836;52.754;6.866;2022-11-10T03:56:38;50.35;;;16.13;;
53925;SDS011;39836;52.754;6.866;2022-11-10T03:59:04;34.20;;;15.20;;
53925;SDS011;39836;52.754;6.866;2022-11-10T04:01:30;36.10;;;16.05;;
53925;SDS011;39836;52.754;6.866;2022-11-10T04:03:55;42.78;;;16.88;;
53925;SDS011;39836;52.754;6.866;2022-11-10T04:06:21;39.03;;;15.77;;
53925;SDS011;39836;52.754;6.866;2022-11-10T04:09:06;52.65;;;18.15;;
53925;SDS011;39836;52.754;6.866;2022-11-10T04:11:32;45.03;;;15.63;;
53925;SDS011;39836;52.754;6.866;2022-11-10T04:14:17;42.75;;;16.35;;
53925;SDS011;39836;52.754;6.866;2022-11-10T04:17:01;47.25;;;19.08;;
53925;SDS011;39836;52.754;6.866;2022-11-10T04:19:27;57.42;;;19.20;;
53925;SDS011;39836;52.754;6.866;2022-11-10T04:21:53;47.83;;;18.45;;
53925;SDS011;39836;52.754;6.866;2022-11-10T04:24:18;51.92;;;19.30;;
53925;SDS011;39836;52.754;6.866;2022-11-10T04:26:45;40.80;;;18.67;;
53925;SDS011;39836;52.754;6.866;2022-11-10T04:29:13;50.40;;;20.58;;
53925;SDS011;39836;52.754;6.866;2022-11-10T04:31:40;52.10;;;21.48;;
53925;SDS011;39836;52.754;6.866;2022-11-10T04:34:08;48.38;;;20.27;;
53925;SDS011;39836;52.754;6.866;2022-11-10T04:36:37;54.25;;;20.80;;
53925;SDS011;39836;52.754;6.866;2022-11-10T04:39:04;52.08;;;21.08;;
53925;SDS011;39836;52.754;6.866;2022-11-10T04:41:31;48.05;;;21.63;;
53925;SDS011;39836;52.754;6.866;2022-11-10T04:43:57;50.50;;;22.90;;
53925;SDS011;39836;52.754;6.866;2022-11-10T04:46:34;41.28;;;21.73;;
53925;SDS011;39836;52.754;6.866;2022-11-10T04:49:02;52.78;;;21.55;;
53925;SDS011;39836;52.754;6.866;2022-11-10T04:51:29;53.67;;;22.67;;
53925;SDS011;39836;52.754;6.866;2022-11-10T04:53:57;48.55;;;23.20;;
53925;SDS011;39836;52.754;6.866;2022-11-10T04:56:24;55.38;;;24.58;;
53925;SDS011;39836;52.754;6.866;2022-11-10T04:58:51;58.15;;;22.02;;
53925;SDS011;39836;52.754;6.866;2022-11-10T05:01:18;54.00;;;23.23;;
53925;SDS011;39836;52.754;6.866;2022-11-10T05:03:46;65.68;;;25.30;;
53925;SDS011;39836;52.754;6.866;2022-11-10T05:06:12;58.65;;;22.67;;
53925;SDS011;39836;52.754;6.866;2022-11-10T05:08:39;62.65;;;25.20;;
53925;SDS011;39836;52.754;6.866;2022-11-10T05:11:05;58.25;;;24.17;;
53925;SDS011;39836;52.754;6.866;2022-11-10T05:13:31;50.63;;;24.75;;
53925;SDS011;39836;52.754;6.866;2022-11-10T05:15:57;68.25;;;27.13;;
53925;SDS011;39836;52.754;6.866;2022-11-10T05:18:23;48.17;;;23.08;;
53925;SDS011;39836;52.754;6.866;2022-11-10T05:23:38;58.80;;;24.08;;
53925;SDS011;39836;52.754;6.866;2022-11-10T05:28:31;58.42;;;24.13;;
53925;SDS011;39836;52.754;6.866;2022-11-10T05:30:57;55.85;;;23.65;;
53925;SDS011;39836;52.754;6.866;2022-11-10T05:33:22;56.90;;;24.58;;
53925;SDS011;39836;52.754;6.866;2022-11-10T05:35:48;50.00;;;24.60;;
53925;SDS011;39836;52.754;6.866;2022-11-10T05:38:14;54.20;;;22.30;;
53925;SDS011;39836;52.754;6.866;2022-11-10T05:40:41;51.15;;;22.40;;
53925;SDS011;39836;52.754;6.866;2022-11-10T05:43:06;51.00;;;23.50;;
53925;SDS011;39836;52.754;6.866;2022-11-10T05:45:32;55.40;;;24.17;;
53925;SDS011;39836;52.754;6.866;2022-11-10T05:47:58;62.40;;;23.45;;
53925;SDS011;39836;52.754;6.866;2022-11-10T05:50:23;48.65;;;22.15;;
53925;SDS011;39836;52.754;6.866;2022-11-10T05:52:50;48.92;;;22.25;;
53925;SDS011;39836;52.754;6.866;2022-11-10T05:55:18;56.17;;;22.65;;
53925;SDS011;39836;52.754;6.866;2022-11-10T05:57:47;46.58;;;22.35;;
53925;SDS011;39836;52.754;6.866;2022-11-10T06:00:15;59.97;;;22.48;;
53925;SDS011;39836;52.754;6.866;2022-11-10T06:02:45;47.63;;;22.63;;
53925;SDS011;39836;52.754;6.866;2022-11-10T06:05:24;52.00;;;22.48;;
53925;SDS011;39836;52.754;6.866;2022-11-10T06:07:50;50.88;;;22.52;;
53925;SDS011;39836;52.754;6.866;2022-11-10T06:10:16;54.85;;;23.65;;
53925;SDS011;39836;52.754;6.866;2022-11-10T06:12:41;50.83;;;21.85;;
53925;SDS011;39836;52.754;6.866;2022-11-10T06:15:07;54.45;;;23.80;;
53925;SDS011;39836;52.754;6.866;2022-11-10T06:17:36;57.08;;;22.80;;
53925;SDS011;39836;52.754;6.866;2022-11-10T06:20:02;60.58;;;24.23;;
53925;SDS011;39836;52.754;6.866;2022-11-10T06:22:27;46.28;;;21.35;;
53925;SDS011;39836;52.754;6.866;2022-11-10T06:24:53;53.22;;;22.42;;
53925;SDS011;39836;52.754;6.866;2022-11-10T06:27:19;47.17;;;21.88;;
53925;SDS011;39836;52.754;6.866;2022-11-10T06:29:44;62.63;;;22.85;;
53925;SDS011;39836;52.754;6.866;2022-11-10T06:32:10;55.83;;;21.27;;
53925;SDS011;39836;52.754;6.866;2022-11-10T06:34:36;48.47;;;21.08;;
53925;SDS011;39836;52.754;6.866;2022-11-10T06:37:01;43.20;;;18.95;;
53925;SDS011;39836;52.754;6.866;2022-11-10T06:39:27;42.85;;;18.67;;
53925;SDS011;39836;52.754;6.866;2022-11-10T06:41:53;55.40;;;20.88;;
53925;SDS011;39836;52.754;6.866;2022-11-10T06:44:18;41.28;;;18.88;;
53925;SDS011;39836;52.754;6.866;2022-11-10T06:46:44;43.20;;;19.83;;
53925;SDS011;39836;52.754;6.866;2022-11-10T06:49:10;46.53;;;20.52;;
53925;SDS011;39836;52.754;6.866;2022-11-10T06:51:35;44.45;;;19.08;;
53925;SDS011;39836;52.754;6.866;2022-11-10T06:54:01;45.90;;;18.40;;
53925;SDS011;39836;52.754;6.866;2022-11-10T06:56:27;53.33;;;18.90;;
53925;SDS011;39836;52.754;6.866;2022-11-10T06:58:52;53.47;;;18.23;;
53925;SDS011;39836;52.754;6.866;2022-11-10T07:01:18;44.03;;;18.33;;
53925;SDS011;39836;52.754;6.866;2022-11-10T07:03:45;46.17;;;17.40;;
53925;SDS011;39836;52.754;6.866;2022-11-10T07:06:11;51.25;;;19.73;;
53925;SDS011;39836;52.754;6.866;2022-11-10T07:08:37;43.35;;;17.52;;
53925;SDS011;39836;52.754;6.866;2022-11-10T07:11:02;47.03;;;18.27;;
53925;SDS011;39836;52.754;6.866;2022-11-10T07:13:28;58.83;;;21.35;;
53925;SDS011;39836;52.754;6.866;2022-11-10T07:15:54;42.13;;;19.95;;
53925;SDS011;39836;52.754;6.866;2022-11-10T07:18:20;42.60;;;19.27;;
53925;SDS011;39836;52.754;6.866;2022-11-10T07:20:47;49.03;;;18.85;;
53925;SDS011;39836;52.754;6.866;2022-11-10T07:23:13;51.60;;;19.80;;
53925;SDS011;39836;52.754;6.866;2022-11-10T07:25:38;45.25;;;19.92;;
53925;SDS011;39836;52.754;6.866;2022-11-10T07:28:05;41.75;;;20.27;;
53925;SDS011;39836;52.754;6.866;2022-11-10T07:30:32;53.13;;;18.88;;
53925;SDS011;39836;52.754;6.866;2022-11-10T07:33:00;45.67;;;17.70;;
53925;SDS011;39836;52.754;6.866;2022-11-10T07:35:27;46.10;;;18.42;;
53925;SDS011;39836;52.754;6.866;2022-11-10T07:37:54;44.85;;;18.75;;
53925;SDS011;39836;52.754;6.866;2022-11-10T07:40:20;41.95;;;18.42;;
53925;SDS011;39836;52.754;6.866;2022-11-10T07:42:46;39.95;;;18.48;;
53925;SDS011;39836;52.754;6.866;2022-11-10T07:45:12;48.30;;;17.60;;
53925;SDS011;39836;52.754;6.866;2022-11-10T07:47:38;43.78;;;19.20;;
53925;SDS011;39836;52.754;6.866;2022-11-10T07:50:04;44.05;;;18.73;;
53925;SDS011;39836;52.754;6.866;2022-11-10T07:52:30;45.65;;;19.15;;
53925;SDS011;39836;52.754;6.866;2022-11-10T07:54:55;48.10;;;18.90;;
53925;SDS011;39836;52.754;6.866;2022-11-10T07:57:21;39.42;;;17.33;;
53925;SDS011;39836;52.754;6.866;2022-11-10T07:59:47;47.78;;;19.67;;
53925;SDS011;39836;52.754;6.866;2022-11-10T08:02:12;49.83;;;20.70;;
53925;SDS011;39836;52.754;6.866;2022-11-10T08:04:38;54.03;;;19.48;;
53925;SDS011;39836;52.754;6.866;2022-11-10T08:07:04;47.28;;;19.90;;
53925;SDS011;39836;52.754;6.866;2022-11-10T08:09:29;43.50;;;17.98;;
53925;SDS011;39836;52.754;6.866;2022-11-10T08:11:55;35.20;;;18.58;;
53925;SDS011;39836;52.754;6.866;2022-11-10T08:14:21;36.47;;;18.02;;
53925;SDS011;39836;52.754;6.866;2022-11-10T08:16:46;42.85;;;18.38;;
53925;SDS011;39836;52.754;6.866;2022-11-10T08:19:12;36.45;;;17.90;;
53925;SDS011;39836;52.754;6.866;2022-11-10T08:21:38;41.15;;;17.92;;
53925;SDS011;39836;52.754;6.866;2022-11-10T08:24:03;39.65;;;18.60;;
53925;SDS011;39836;52.754;6.866;2022-11-10T08:26:29;44.13;;;17.15;;
53925;SDS011;39836;52.754;6.866;2022-11-10T08:28:55;37.42;;;17.15;;
53925;SDS011;39836;52.754;6.866;2022-11-10T08:31:20;38.92;;;16.27;;
53925;SDS011;39836;52.754;6.866;2022-11-10T08:33:46;37.95;;;17.23;;
53925;SDS011;39836;52.754;6.866;2022-11-10T08:36:12;42.75;;;17.50;;
53925;SDS011;39836;52.754;6.866;2022-11-10T08:38:38;42.08;;;16.65;;
53925;SDS011;39836;52.754;6.866;2022-11-10T08:41:04;49.25;;;17.45;;
53925;SDS011;39836;52.754;6.866;2022-11-10T08:43:29;36.50;;;17.27;;
53925;SDS011;39836;52.754;6.866;2022-11-10T08:45:55;37.53;;;17.10;;
53925;SDS011;39836;52.754;6.866;2022-11-10T08:48:21;38.90;;;15.27;;
53925;SDS011;39836;52.754;6.866;2022-11-10T08:50:48;41.10;;;14.75;;
53925;SDS011;39836;52.754;6.866;2022-11-10T08:53:16;35.85;;;15.13;;
53925;SDS011;39836;52.754;6.866;2022-11-10T08:55:44;29.65;;;13.50;;
53925;SDS011;39836;52.754;6.866;2022-11-10T08:58:12;37.10;;;13.68;;
53925;SDS011;39836;52.754;6.866;2022-11-10T09:00:39;31.33;;;13.02;;
53925;SDS011;39836;52.754;6.866;2022-11-10T09:03:06;38.75;;;12.05;;
53925;SDS011;39836;52.754;6.866;2022-11-10T09:05:34;35.90;;;13.45;;
53925;SDS011;39836;52.754;6.866;2022-11-10T09:08:00;34.90;;;12.40;;
53925;SDS011;39836;52.754;6.866;2022-11-10T09:10:26;27.00;;;10.75;;
53925;SDS011;39836;52.754;6.866;2022-11-10T09:12:52;31.73;;;12.13;;
53925;SDS011;39836;52.754;6.866;2022-11-10T09:15:18;30.77;;;10.40;;
53925;SDS011;39836;52.754;6.866;2022-11-10T09:17:44;29.77;;;10.98;;
53925;SDS011;39836;52.754;6.866;2022-11-10T09:20:10;27.58;;;10.73;;
53925;SDS011;39836;52.754;6.866;2022-11-10T09:22:37;32.42;;;10.63;;
53925;SDS011;39836;52.754;6.866;2022-11-10T09:25:03;36.30;;;10.80;;
53925;SDS011;39836;52.754;6.866;2022-11-10T09:27:29;30.98;;;10.52;;
53925;SDS011;39836;52.754;6.866;2022-11-10T09:29:55;28.10;;;11.07;;
53925;SDS011;39836;52.754;6.866;2022-11-10T09:32:20;33.80;;;10.57;;
53925;SDS011;39836;52.754;6.866;2022-11-10T09:34:46;35.17;;;12.55;;
53925;SDS011;39836;52.754;6.866;2022-11-10T09:37:12;33.58;;;10.27;;
53925;SDS011;39836;52.754;6.866;2022-11-10T09:39:37;25.17;;;9.88;;
53925;SDS011;39836;52.754;6.866;2022-11-10T09:42:04;34.40;;;9.65;;
53925;SDS011;39836;52.754;6.866;2022-11-10T09:44:49;33.75;;;9.80;;
53925;SDS011;39836;52.754;6.866;2022-11-10T09:47:21;23.55;;;9.38;;
53925;SDS011;39836;52.754;6.866;2022-11-10T09:49:51;26.70;;;9.77;;
53925;SDS011;39836;52.754;6.866;2022-11-10T09:52:20;30.55;;;10.35;;
53925;SDS011;39836;52.754;6.866;2022-11-10T09:54:50;27.58;;;9.18;;
53925;SDS011;39836;52.754;6.866;2022-11-10T09:57:21;30.33;;;8.75;;
53925;SDS011;39836;52.754;6.866;2022-11-10T09:59:49;27.45;;;7.63;;
53925;SDS011;39836;52.754;6.866;2022-11-10T10:02:19;19.98;;;7.32;;
53925;SDS011;39836;52.754;6.866;2022-11-10T10:08:04;23.38;;;7.05;;
53925;SDS011;39836;52.754;6.866;2022-11-10T10:10:44;21.63;;;5.85;;
53925;SDS011;39836;52.754;6.866;2022-11-10T10:18:57;21.63;;;5.22;;
53925;SDS011;39836;52.754;6.866;2022-11-10T10:24:29;23.40;;;6.00;;
53925;SDS011;39836;52.754;6.866;2022-11-10T10:26:57;16.52;;;4.50;;
53925;SDS011;39836;52.754;6.866;2022-11-10T10:29:27;17.85;;;5.25;;
53925;SDS011;39836;52.754;6.866;2022-11-10T10:31:57;25.65;;;6.05;;
53925;SDS011;39836;52.754;6.866;2022-11-10T10:34:29;31.45;;;5.55;;
53925;SDS011;39836;52.754;6.866;2022-11-10T10:36:58;19.88;;;4.63;;
53925;SDS011;39836;52.754;6.866;2022-11-10T10:41:54;25.70;;;6.03;;
53925;SDS011;39836;52.754;6.866;2022-11-10T10:44:20;19.23;;;5.25;;
53925;SDS011;39836;52.754;6.866;2022-11-10T10:46:47;22.73;;;5.07;;
53925;SDS011;39836;52.754;6.866;2022-11-10T10:49:28;21.50;;;4.72;;
53925;SDS011;39836;52.754;6.866;2022-11-10T10:52:02;23.42;;;4.82;;
53925;SDS011;39836;52.754;6.866;2022-11-10T10:54:39;25.38;;;5.45;;
53925;SDS011;39836;52.754;6.866;2022-11-10T10:59:31;26.08;;;5.47;;
53925;SDS011;39836;52.754;6.866;2022-11-10T11:01:57;19.27;;;4.60;;
53925;SDS011;39836;52.754;6.866;2022-11-10T11:04:30;19.05;;;4.88;;
53925;SDS011;39836;52.754;6.866;2022-11-10T11:07:00;25.33;;;5.13;;
53925;SDS011;39836;52.754;6.866;2022-11-10T11:09:29;21.23;;;5.50;;
53925;SDS011;39836;52.754;6.866;2022-11-10T11:12:13;23.20;;;5.38;;
53925;SDS011;39836;52.754;6.866;2022-11-10T11:14:51;26.80;;;6.90;;
53925;SDS011;39836;52.754;6.866;2022-11-10T11:17:40;23.05;;;5.80;;
53925;SDS011;39836;52.754;6.866;2022-11-10T11:20:29;24.17;;;5.55;;
53925;SDS011;39836;52.754;6.866;2022-11-10T11:25:53;20.73;;;6.32;;
53925;SDS011;39836;52.754;6.866;2022-11-10T11:31:12;17.73;;;5.45;;
53925;SDS011;39836;52.754;6.866;2022-11-10T11:33:46;20.65;;;5.93;;
53925;SDS011;39836;52.754;6.866;2022-11-10T11:36:32;25.65;;;5.80;;
53925;SDS011;39836;52.754;6.866;2022-11-10T11:39:10;20.13;;;5.40;;
53925;SDS011;39836;52.754;6.866;2022-11-10T11:42:03;26.52;;;6.40;;
53925;SDS011;39836;52.754;6.866;2022-11-10T11:45:06;23.98;;;6.55;;
53925;SDS011;39836;52.754;6.866;2022-11-10T11:50:28;21.27;;;6.32;;
53925;SDS011;39836;52.754;6.866;2022-11-10T11:58:12;31.35;;;6.47;;
53925;SDS011;39836;52.754;6.866;2022-11-10T12:14:55;23.08;;;4.15;;
53925;SDS011;39836;52.754;6.866;2022-11-10T12:20:13;18.48;;;4.00;;
53925;SDS011;39836;52.754;6.866;2022-11-10T12:22:54;19.95;;;4.25;;
53925;SDS011;39836;52.754;6.866;2022-11-10T12:28:04;18.25;;;4.00;;
53925;SDS011;39836;52.754;6.866;2022-11-10T12:30:41;15.25;;;3.63;;
53925;SDS011;39836;52.754;6.866;2022-11-10T12:36:04;18.23;;;3.53;;
53925;SDS011;39836;52.754;6.866;2022-11-10T12:41:38;17.08;;;4.07;;
53925;SDS011;39836;52.754;6.866;2022-11-10T12:44:14;23.85;;;4.63;;
53925;SDS011;39836;52.754;6.866;2022-11-10T12:46:49;19.30;;;3.97;;
53925;SDS011;39836;52.754;6.866;2022-11-10T12:52:00;20.98;;;3.83;;
53925;SDS011;39836;52.754;6.866;2022-11-10T12:54:40;20.10;;;3.70;;
53925;SDS011;39836;52.754;6.866;2022-11-10T12:57:11;22.13;;;3.67;;
53925;SDS011;39836;52.754;6.866;2022-11-10T13:02:24;17.65;;;3.63;;
53925;SDS011;39836;52.754;6.866;2022-11-10T13:07:38;20.00;;;4.13;;
53925;SDS011;39836;52.754;6.866;2022-11-10T13:18:04;20.83;;;3.97;;
53925;SDS011;39836;52.754;6.866;2022-11-10T13:23:27;21.65;;;3.80;;
53925;SDS011;39836;52.754;6.866;2022-11-10T13:26:03;24.73;;;4.28;;
53925;SDS011;39836;52.754;6.866;2022-11-10T13:31:57;19.90;;;4.53;;
53925;SDS011;39836;52.754;6.866;2022-11-10T13:36:44;23.95;;;4.38;;
53925;SDS011;39836;52.754;6.866;2022-11-10T13:39:22;21.40;;;3.67;;
53925;SDS011;39836;52.754;6.866;2022-11-10T13:42:15;21.67;;;3.97;;
53925;SDS011;39836;52.754;6.866;2022-11-10T13:44:42;21.70;;;4.45;;
53925;SDS011;39836;52.754;6.866;2022-11-10T13:53:10;19.42;;;3.92;;
53925;SDS011;39836;52.754;6.866;2022-11-10T13:55:49;19.33;;;3.50;;
53925;SDS011;39836;52.754;6.866;2022-11-10T13:58:28;22.40;;;4.45;;
53925;SDS011;39836;52.754;6.866;2022-11-10T14:06:14;21.38;;;4.13;;
53925;SDS011;39836;52.754;6.866;2022-11-10T14:08:45;19.17;;;4.07;;
53925;SDS011;39836;52.754;6.866;2022-11-10T14:11:19;21.65;;;4.95;;
53925;SDS011;39836;52.754;6.866;2022-11-10T14:17:23;19.98;;;4.10;;
53925;SDS011;39836;52.754;6.866;2022-11-10T14:19:52;20.20;;;4.05;;
53925;SDS011;39836;52.754;6.866;2022-11-10T14:27:31;17.83;;;4.20;;
53925;SDS011;39836;52.754;6.866;2022-11-10T14:30:04;22.63;;;4.07;;
53925;SDS011;39836;52.754;6.866;2022-11-10T14:32:35;19.25;;;3.95;;
53925;SDS011;39836;52.754;6.866;2022-11-10T14:35:00;20.95;;;4.22;;
53925;SDS011;39836;52.754;6.866;2022-11-10T14:37:27;13.82;;;4.00;;
53925;SDS011;39836;52.754;6.866;2022-11-10T14:39:57;17.77;;;3.92;;
53925;SDS011;39836;52.754;6.866;2022-11-10T14:42:30;16.58;;;4.55;;
53925;SDS011;39836;52.754;6.866;2022-11-10T14:45:13;20.10;;;3.67;;
53925;SDS011;39836;52.754;6.866;2022-11-10T14:47:51;18.65;;;3.72;;
53925;SDS011;39836;52.754;6.866;2022-11-10T14:52:59;19.50;;;3.95;;
53925;SDS011;39836;52.754;6.866;2022-11-10T14:55:28;16.35;;;3.92;;
53925;SDS011;39836;52.754;6.866;2022-11-10T14:58:09;24.48;;;3.85;;
53925;SDS011;39836;52.754;6.866;2022-11-10T15:00:47;20.75;;;4.25;;
53925;SDS011;39836;52.754;6.866;2022-11-10T15:03:18;19.95;;;3.55;;
53925;SDS011;39836;52.754;6.866;2022-11-10T15:05:57;21.70;;;4.20;;
53925;SDS011;39836;52.754;6.866;2022-11-10T15:08:24;18.65;;;4.70;;
53925;SDS011;39836;52.754;6.866;2022-11-10T15:10:51;19.02;;;3.90;;
53925;SDS011;39836;52.754;6.866;2022-11-10T15:16:37;16.45;;;3.83;;
53925;SDS011;39836;52.754;6.866;2022-11-10T15:19:23;20.02;;;3.88;;
53925;SDS011;39836;52.754;6.866;2022-11-10T15:21:51;21.73;;;4.10;;
53925;SDS011;39836;52.754;6.866;2022-11-10T15:24:16;20.08;;;4.20;;
53925;SDS011;39836;52.754;6.866;2022-11-10T15:26:43;15.02;;;3.38;;
53925;SDS011;39836;52.754;6.866;2022-11-10T15:29:21;16.90;;;3.50;;
53925;SDS011;39836;52.754;6.866;2022-11-10T15:31:49;18.60;;;3.75;;
53925;SDS011;39836;52.754;6.866;2022-11-10T15:37:10;18.27;;;3.85;;
53925;SDS011;39836;52.754;6.866;2022-11-10T15:39:46;19.80;;;3.55;;
53925;SDS011;39836;52.754;6.866;2022-11-10T15:42:13;20.02;;;3.55;;
53925;SDS011;39836;52.754;6.866;2022-11-10T15:44:45;15.38;;;3.80;;
53925;SDS011;39836;52.754;6.866;2022-11-10T15:47:11;16.33;;;3.80;;
53925;SDS011;39836;52.754;6.866;2022-11-10T15:49:39;14.57;;;3.03;;
53925;SDS011;39836;52.754;6.866;2022-11-10T15:54:34;18.88;;;3.80;;
53925;SDS011;39836;52.754;6.866;2022-11-10T15:57:00;17.85;;;3.40;;
53925;SDS011;39836;52.754;6.866;2022-11-10T15:59:26;15.70;;;3.40;;
53925;SDS011;39836;52.754;6.866;2022-11-10T16:01:52;14.20;;;3.60;;
53925;SDS011;39836;52.754;6.866;2022-11-10T16:04:18;18.30;;;3.35;;
53925;SDS011;39836;52.754;6.866;2022-11-10T16:06:44;12.93;;;3.28;;
53925;SDS011;39836;52.754;6.866;2022-11-10T16:09:10;18.33;;;4.75;;
53925;SDS011;39836;52.754;6.866;2022-11-10T16:11:37;15.40;;;3.72;;
53925;SDS011;39836;52.754;6.866;2022-11-10T16:14:08;15.40;;;3.70;;
53925;SDS011;39836;52.754;6.866;2022-11-10T16:16:39;13.88;;;3.00;;
53925;SDS011;39836;52.754;6.866;2022-11-10T16:19:08;14.38;;;2.75;;
53925;SDS011;39836;52.754;6.866;2022-11-10T16:21:34;16.10;;;3.45;;
53925;SDS011;39836;52.754;6.866;2022-11-10T16:24:00;12.10;;;3.00;;
53925;SDS011;39836;52.754;6.866;2022-11-10T16:26:26;18.25;;;3.72;;
53925;SDS011;39836;52.754;6.866;2022-11-10T16:28:53;15.95;;;3.22;;
53925;SDS011;39836;52.754;6.866;2022-11-10T16:31:19;16.58;;;3.47;;
53925;SDS011;39836;52.754;6.866;2022-11-10T16:33:46;13.23;;;2.83;;